createdAt,value
2018-12-05T00:00:14.659Z,11.70
2018-12-05T00:01:14.713Z,12.00
2018-12-05T00:02:14.756Z,12.00
2018-12-05T00:03:14.827Z,11.90
2018-12-05T00:04:14.827Z,11.20
2018-12-05T00:05:14.866Z,10.80
2018-12-05T00:06:14.942Z,10.50
2018-12-05T00:07:14.984Z,10.90
2018-12-05T00:08:15.064Z,11.00
2018-12-05T00:09:15.071Z,10.80
2018-12-05T00:10:15.137Z,10.40
2018-12-05T00:11:15.215Z,10.70
2018-12-05T00:12:15.213Z,11.00
2018-12-05T00:13:15.263Z,10.90
2018-12-05T00:14:15.364Z,11.00
2018-12-05T00:15:15.376Z,11.30
2018-12-05T00:16:15.412Z,11.10
2018-12-05T00:17:15.471Z,12.10
2018-12-05T00:18:15.524Z,11.70
2018-12-05T00:19:15.573Z,11.10
2018-12-05T00:20:15.612Z,11.80
2018-12-05T00:21:15.673Z,11.90
2018-12-05T00:22:15.706Z,11.80
2018-12-05T00:23:15.813Z,12.10
2018-12-05T00:24:15.801Z,11.80
2018-12-05T00:25:15.875Z,12.50
2018-12-05T00:26:15.954Z,12.80
2018-12-05T00:27:15.965Z,12.90
2018-12-05T00:28:15.981Z,12.80
2018-12-05T00:29:16.016Z,12.30
2018-12-05T00:30:16.107Z,12.50
2018-12-05T00:31:16.134Z,12.80
2018-12-05T00:32:16.190Z,13.00
2018-12-05T00:33:16.280Z,13.00
2018-12-05T00:34:16.275Z,14.40
2018-12-05T00:35:16.331Z,13.90
2018-12-05T00:36:16.380Z,15.40
2018-12-05T00:37:16.433Z,15.30
2018-12-05T00:38:16.476Z,14.90
2018-12-05T00:39:16.527Z,15.10
2018-12-05T00:40:16.618Z,15.20
2018-12-05T00:41:16.607Z,15.60
2018-12-05T00:42:16.652Z,14.70
2018-12-05T00:43:16.717Z,15.80
2018-12-05T00:44:16.753Z,15.70
2018-12-05T00:45:16.819Z,16.30
2018-12-05T00:46:16.852Z,16.30
2018-12-05T00:47:16.948Z,16.00
2018-12-05T00:48:16.961Z,16.70
2018-12-05T00:49:17.011Z,16.30
2018-12-05T00:50:17.060Z,16.40
2018-12-05T00:51:17.104Z,16.10
2018-12-05T00:52:17.132Z,16.50
2018-12-05T00:53:17.186Z,17.00
2018-12-05T00:54:17.239Z,16.80
2018-12-05T00:55:17.278Z,15.80
2018-12-05T00:56:17.361Z,16.50
2018-12-05T00:57:17.384Z,16.90
2018-12-05T00:58:17.406Z,16.80
2018-12-05T00:59:17.452Z,16.50
2018-12-05T01:00:17.514Z,16.90
2018-12-05T01:01:17.565Z,17.10
2018-12-05T01:02:17.577Z,17.60
2018-12-05T01:03:17.644Z,17.20
2018-12-05T01:04:17.673Z,16.80
2018-12-05T01:05:17.752Z,17.50
2018-12-05T01:06:17.809Z,17.20
2018-12-05T01:07:17.850Z,16.80
2018-12-05T01:08:17.889Z,16.80
2018-12-05T01:09:17.934Z,17.20
2018-12-05T01:10:17.978Z,17.50
2018-12-05T01:11:18.054Z,18.60
2018-12-05T01:12:18.080Z,18.80
2018-12-05T01:13:18.171Z,18.60
2018-12-05T01:14:18.166Z,18.60
2018-12-05T01:15:18.216Z,18.30
2018-12-05T01:16:18.273Z,18.40
2018-12-05T01:17:18.340Z,18.10
2018-12-05T01:18:18.377Z,19.20
2018-12-05T01:19:18.430Z,20.10
2018-12-05T01:20:18.478Z,19.80
2018-12-05T01:21:18.550Z,20.30
2018-12-05T01:22:18.583Z,21.00
2018-12-05T01:23:18.607Z,21.30
2018-12-05T01:24:18.659Z,20.70
2018-12-05T01:25:18.712Z,21.00
2018-12-05T01:26:18.753Z,21.10
2018-12-05T01:27:18.790Z,23.90
2018-12-05T01:28:18.837Z,23.90
2018-12-05T01:29:18.872Z,23.60
2018-12-05T01:30:18.937Z,23.60
2018-12-05T01:31:18.953Z,23.60
2018-12-05T01:32:19.062Z,23.60
2018-12-05T01:33:19.084Z,24.20
2018-12-05T01:34:19.149Z,23.90
2018-12-05T01:35:19.182Z,24.10
2018-12-05T01:36:19.210Z,24.10
2018-12-05T01:37:19.264Z,25.30
2018-12-05T01:38:19.359Z,25.60
2018-12-05T01:39:19.321Z,26.20
2018-12-05T01:40:19.358Z,24.90
2018-12-05T01:41:19.427Z,25.60
2018-12-05T01:42:19.495Z,25.10
2018-12-05T01:43:19.508Z,26.00
2018-12-05T01:44:19.564Z,25.20
2018-12-05T01:45:19.606Z,25.50
2018-12-05T01:46:19.690Z,26.10
2018-12-05T01:47:19.698Z,25.90
2018-12-05T01:48:19.736Z,24.30
2018-12-05T01:49:19.806Z,24.50
2018-12-05T01:50:19.858Z,24.70
2018-12-05T01:51:19.975Z,24.20
2018-12-05T01:52:19.947Z,24.90
2018-12-05T01:53:19.995Z,25.40
2018-12-05T01:54:20.014Z,25.00
2018-12-05T01:55:20.079Z,24.60
2018-12-05T01:56:20.137Z,23.20
2018-12-05T01:57:20.167Z,23.00
2018-12-05T01:58:20.218Z,23.00
2018-12-05T01:59:20.297Z,22.10
2018-12-05T02:00:20.293Z,21.70
2018-12-05T02:01:20.381Z,21.90
2018-12-05T02:02:20.407Z,22.20
2018-12-05T02:03:20.442Z,22.20
2018-12-05T02:04:20.501Z,21.10
2018-12-05T02:05:20.587Z,22.30
2018-12-05T02:06:20.592Z,21.90
2018-12-05T02:07:20.623Z,22.10
2018-12-05T02:08:20.690Z,21.70
2018-12-05T02:09:20.758Z,21.80
2018-12-05T02:10:20.793Z,21.40
2018-12-05T02:11:20.826Z,20.50
2018-12-05T02:12:20.892Z,20.50
2018-12-05T02:13:20.943Z,21.00
2018-12-05T02:14:20.982Z,20.70
2018-12-05T02:15:21.025Z,21.50
2018-12-05T02:16:21.061Z,21.20
2018-12-05T02:17:21.106Z,21.40
2018-12-05T02:18:21.135Z,21.50
2018-12-05T02:19:21.179Z,21.70
2018-12-05T02:20:21.256Z,21.10
2018-12-05T02:21:21.332Z,21.10
2018-12-05T02:22:21.358Z,21.70
2018-12-05T02:23:21.397Z,21.30
2018-12-05T02:24:21.489Z,21.50
2018-12-05T02:25:21.568Z,20.90
2018-12-05T02:26:21.523Z,21.50
2018-12-05T02:27:21.587Z,21.30
2018-12-05T02:28:21.623Z,21.30
2018-12-05T02:29:21.667Z,20.70
2018-12-05T02:30:21.728Z,20.90
2018-12-05T02:31:21.758Z,21.00
2018-12-05T02:32:21.816Z,22.40
2018-12-05T02:33:21.865Z,21.80
2018-12-05T02:34:21.947Z,22.80
2018-12-05T02:35:21.954Z,22.00
2018-12-05T02:36:22.016Z,21.70
2018-12-05T02:37:22.061Z,21.80
2018-12-05T02:38:22.112Z,22.70
2018-12-05T02:39:22.143Z,22.50
2018-12-05T02:40:22.208Z,23.10
2018-12-05T02:41:22.245Z,23.30
2018-12-05T02:42:22.283Z,22.60
2018-12-05T02:43:22.337Z,22.60
2018-12-05T02:44:22.385Z,22.10
2018-12-05T02:45:22.427Z,21.70
2018-12-05T02:46:22.493Z,21.40
2018-12-05T02:47:22.552Z,21.80
2018-12-05T02:48:22.580Z,21.00
2018-12-05T02:49:22.623Z,20.20
2018-12-05T02:50:22.654Z,21.40
2018-12-05T02:51:22.697Z,22.00
2018-12-05T02:52:22.765Z,21.00
2018-12-05T02:53:22.811Z,22.10
2018-12-05T02:54:22.860Z,22.20
2018-12-05T02:55:22.902Z,22.40
2018-12-05T02:56:22.979Z,22.60
2018-12-05T02:57:23.000Z,22.50
2018-12-05T02:58:23.049Z,21.50
2018-12-05T02:59:23.099Z,21.90
2018-12-05T03:00:23.142Z,22.00
2018-12-05T03:01:23.165Z,22.30
2018-12-05T03:02:23.216Z,22.20
2018-12-05T03:03:23.282Z,22.60
2018-12-05T03:04:23.334Z,22.20
2018-12-05T03:05:23.378Z,21.00
2018-12-05T03:06:23.426Z,21.90
2018-12-05T03:07:23.477Z,22.00
2018-12-05T03:08:23.561Z,22.30
2018-12-05T03:09:23.559Z,22.30
2018-12-05T03:10:23.618Z,21.20
2018-12-05T03:11:23.634Z,22.00
2018-12-05T03:12:23.756Z,22.00
2018-12-05T03:13:23.761Z,21.60
2018-12-05T03:14:23.790Z,21.00
2018-12-05T03:15:23.831Z,21.40
2018-12-05T03:16:23.881Z,21.60
2018-12-05T03:17:23.930Z,21.00
2018-12-05T03:18:24.022Z,21.30
2018-12-05T03:19:24.075Z,21.10
2018-12-05T03:20:24.084Z,20.10
2018-12-05T03:21:24.166Z,21.10
2018-12-05T03:22:24.184Z,21.30
2018-12-05T03:23:24.229Z,22.00
2018-12-05T03:24:24.514Z,22.10
2018-12-05T03:25:24.316Z,21.90
2018-12-05T03:26:24.352Z,21.40
2018-12-05T03:27:24.461Z,21.90
2018-12-05T03:28:24.454Z,22.20
2018-12-05T03:29:24.512Z,22.00
2018-12-05T03:30:24.542Z,22.00
2018-12-05T03:31:24.592Z,22.60
2018-12-05T03:32:24.623Z,23.00
2018-12-05T03:33:24.686Z,23.50
2018-12-05T03:34:24.744Z,23.20
2018-12-05T03:35:24.764Z,22.70
2018-12-05T03:36:24.831Z,22.60
2018-12-05T03:37:24.872Z,23.40
2018-12-05T03:38:24.903Z,22.90
2018-12-05T03:39:24.981Z,22.80
2018-12-05T03:40:25.008Z,23.40
2018-12-05T03:41:25.049Z,23.00
2018-12-05T03:42:25.090Z,23.00
2018-12-05T03:43:25.150Z,23.60
2018-12-05T03:44:25.190Z,23.70
2018-12-05T03:45:25.250Z,23.60
2018-12-05T03:46:25.289Z,23.80
2018-12-05T03:47:25.322Z,24.60
2018-12-05T03:48:25.389Z,24.20
2018-12-05T03:49:25.445Z,24.20
2018-12-05T03:50:25.471Z,24.90
2018-12-05T03:51:25.525Z,25.20
2018-12-05T03:52:25.564Z,24.60
2018-12-05T03:53:25.625Z,24.50
2018-12-05T03:54:25.672Z,25.10
2018-12-05T03:55:25.716Z,25.60
2018-12-05T03:56:25.845Z,25.30
2018-12-05T03:57:25.799Z,25.40
2018-12-05T03:58:25.856Z,25.40
2018-12-05T03:59:25.884Z,25.70
2018-12-05T04:00:25.969Z,25.50
2018-12-05T04:01:25.972Z,25.90
2018-12-05T04:02:26.043Z,26.00
2018-12-05T04:03:26.089Z,25.50
2018-12-05T04:04:26.131Z,25.00
2018-12-05T04:05:26.167Z,24.40
2018-12-05T04:06:26.237Z,24.60
2018-12-05T04:07:26.279Z,24.00
2018-12-05T04:08:26.323Z,24.90
2018-12-05T04:09:26.352Z,23.80
2018-12-05T04:10:26.409Z,23.80
2018-12-05T04:11:26.511Z,23.50
2018-12-05T04:12:26.509Z,24.00
2018-12-05T04:13:26.539Z,24.20
2018-12-05T04:14:26.597Z,23.40
2018-12-05T04:15:26.644Z,22.80
2018-12-05T04:16:26.701Z,22.50
2018-12-05T04:17:26.721Z,23.10
2018-12-05T04:18:26.774Z,23.30
2018-12-05T04:19:26.825Z,22.30
2018-12-05T04:20:26.869Z,22.80
2018-12-05T04:21:26.937Z,22.60
2018-12-05T04:22:26.989Z,22.50
2018-12-05T04:23:27.031Z,23.00
2018-12-05T04:24:27.069Z,22.00
2018-12-05T04:25:27.113Z,23.30
2018-12-05T04:26:27.164Z,22.80
2018-12-05T04:27:27.218Z,23.60
2018-12-05T04:28:27.258Z,23.10
2018-12-05T04:29:27.302Z,22.50
2018-12-05T04:30:27.356Z,23.10
2018-12-05T04:31:27.429Z,23.40
2018-12-05T04:32:27.451Z,23.30
2018-12-05T04:33:27.503Z,22.50
2018-12-05T04:34:27.519Z,22.20
2018-12-05T04:35:27.575Z,22.60
2018-12-05T04:36:27.638Z,23.20
2018-12-05T04:37:27.701Z,23.40
2018-12-05T04:38:27.711Z,23.10
2018-12-05T04:39:27.765Z,23.80
2018-12-05T04:40:27.854Z,24.30
2018-12-05T04:41:27.878Z,23.30
2018-12-05T04:42:27.907Z,23.50
2018-12-05T04:43:27.972Z,22.60
2018-12-05T04:44:28.050Z,22.30
2018-12-05T04:45:28.039Z,23.80
2018-12-05T04:46:28.103Z,24.70
2018-12-05T04:47:28.172Z,25.10
2018-12-05T04:48:28.175Z,25.10
2018-12-05T04:49:28.250Z,24.80
2018-12-05T04:50:28.282Z,25.30
2018-12-05T04:51:28.424Z,25.50
2018-12-05T04:52:28.416Z,25.30
2018-12-05T04:53:28.447Z,25.10
2018-12-05T04:54:28.527Z,24.70
2018-12-05T04:55:28.561Z,25.20
2018-12-05T04:56:28.571Z,25.30
2018-12-05T04:57:28.709Z,24.40
2018-12-05T04:58:28.673Z,24.50
2018-12-05T04:59:28.772Z,25.00
2018-12-05T05:00:28.769Z,25.40
2018-12-05T05:01:28.815Z,24.50
2018-12-05T05:02:28.990Z,25.10
2018-12-05T05:03:28.894Z,25.60
2018-12-05T05:04:28.973Z,25.70
2018-12-05T05:05:29.030Z,26.00
2018-12-05T05:06:29.043Z,25.20
2018-12-05T05:07:29.108Z,25.20
2018-12-05T05:08:29.171Z,25.80
2018-12-05T05:09:29.195Z,25.00
2018-12-05T05:10:29.305Z,25.70
2018-12-05T05:11:29.291Z,25.80
2018-12-05T05:12:29.331Z,25.50
2018-12-05T05:13:29.367Z,25.90
2018-12-05T05:14:29.420Z,25.50
2018-12-05T05:15:29.465Z,25.40
2018-12-05T05:16:29.524Z,26.60
2018-12-05T05:17:29.592Z,26.00
2018-12-05T05:18:29.635Z,26.80
2018-12-05T05:19:29.708Z,27.70
2018-12-05T05:20:29.759Z,27.90
2018-12-05T05:21:29.788Z,28.60
2018-12-05T05:22:29.793Z,29.10
2018-12-05T05:23:29.846Z,28.90
2018-12-05T05:24:29.885Z,27.90
2018-12-05T05:25:29.940Z,28.30
2018-12-05T05:26:30.012Z,27.90
2018-12-05T05:27:30.090Z,27.50
2018-12-05T05:28:30.086Z,27.50
2018-12-05T05:29:30.123Z,27.80
2018-12-05T05:30:30.187Z,27.10
2018-12-05T05:31:30.277Z,26.90
2018-12-05T05:32:30.276Z,26.50
2018-12-05T05:33:30.330Z,27.20
2018-12-05T05:34:30.356Z,27.00
2018-12-05T05:35:30.418Z,26.60
2018-12-05T05:36:30.461Z,26.60
2018-12-05T05:37:30.761Z,27.30
2018-12-05T05:38:30.565Z,26.40
2018-12-05T05:39:30.589Z,26.10
2018-12-05T05:40:30.635Z,26.10
2018-12-05T05:41:30.711Z,26.50
2018-12-05T05:42:30.783Z,25.90
2018-12-05T05:43:30.796Z,25.50
2018-12-05T05:44:30.840Z,25.30
2018-12-05T05:45:30.933Z,27.10
2018-12-05T05:46:30.941Z,25.70
2018-12-05T05:47:30.985Z,25.60
2018-12-05T05:48:31.047Z,25.80
2018-12-05T05:49:31.066Z,25.80
2018-12-05T05:50:31.152Z,25.20
2018-12-05T05:51:31.183Z,26.20
2018-12-05T05:52:31.222Z,26.00
2018-12-05T05:53:31.250Z,26.30
2018-12-05T05:54:31.349Z,25.30
2018-12-05T05:55:31.360Z,25.40
2018-12-05T05:56:31.388Z,26.10
2018-12-05T05:57:31.459Z,26.60
2018-12-05T05:58:31.528Z,26.30
2018-12-05T05:59:31.538Z,26.20
2018-12-05T06:00:31.591Z,27.10
2018-12-05T06:01:31.641Z,26.50
2018-12-05T06:02:31.674Z,26.80
2018-12-05T06:03:31.733Z,26.80
2018-12-05T06:04:31.790Z,26.80
2018-12-05T06:05:31.841Z,25.80
2018-12-05T06:06:31.862Z,26.40
2018-12-05T06:07:31.934Z,26.70
2018-12-05T06:08:31.982Z,28.50
2018-12-05T06:09:32.317Z,28.70
2018-12-05T06:10:32.050Z,28.30
2018-12-05T06:11:32.117Z,28.20
2018-12-05T06:12:32.171Z,26.80
2018-12-05T06:13:32.201Z,27.20
2018-12-05T06:14:32.270Z,27.70
2018-12-05T06:15:32.303Z,27.50
2018-12-05T06:16:32.381Z,27.10
2018-12-05T06:17:32.373Z,27.20
2018-12-05T06:18:32.448Z,27.40
2018-12-05T06:19:32.484Z,27.20
2018-12-05T06:20:32.555Z,27.30
2018-12-05T06:21:32.598Z,26.10
2018-12-05T06:22:32.643Z,26.60
2018-12-05T06:23:32.689Z,26.40
2018-12-05T06:24:32.738Z,26.30
2018-12-05T06:25:32.768Z,26.40
2018-12-05T06:26:32.846Z,26.30
2018-12-05T06:27:32.856Z,25.80
2018-12-05T06:28:32.919Z,25.80
2018-12-05T06:29:32.962Z,24.40
2018-12-05T06:30:33.020Z,26.10
2018-12-05T06:31:33.041Z,26.90
2018-12-05T06:32:33.125Z,25.90
2018-12-05T06:33:33.208Z,26.50
2018-12-05T06:34:33.288Z,26.30
2018-12-05T06:35:33.535Z,25.90
2018-12-05T06:36:33.291Z,26.90
2018-12-05T06:37:33.333Z,27.10
2018-12-05T06:38:33.447Z,26.40
2018-12-05T06:39:33.427Z,26.60
2018-12-05T06:40:33.474Z,26.90
2018-12-05T06:41:33.512Z,26.40
2018-12-05T06:42:33.582Z,26.90
2018-12-05T06:43:33.614Z,26.90
2018-12-05T06:44:33.653Z,26.70
2018-12-05T06:45:33.685Z,27.10
2018-12-05T06:46:33.992Z,26.10
2018-12-05T06:47:33.797Z,25.40
2018-12-05T06:48:33.853Z,25.90
2018-12-05T06:49:33.946Z,26.10
2018-12-05T06:50:33.955Z,25.70
2018-12-05T06:51:34.007Z,26.70
2018-12-05T06:52:34.033Z,25.90
2018-12-05T06:53:35.598Z,25.50
2018-12-05T06:54:34.120Z,26.50
2018-12-05T06:55:39.116Z,25.80
2018-12-05T06:56:34.211Z,26.10
2018-12-05T06:57:34.515Z,25.80
2018-12-05T06:58:34.318Z,25.00
2018-12-05T06:59:34.379Z,25.20
2018-12-05T07:00:34.452Z,25.60
2018-12-05T07:01:34.469Z,26.00
2018-12-05T07:02:34.528Z,24.80
2018-12-05T07:03:34.555Z,25.20
2018-12-05T07:04:34.603Z,25.80
2018-12-05T07:05:34.652Z,25.80
2018-12-05T07:06:34.743Z,25.70
2018-12-05T07:07:34.740Z,24.70
2018-12-05T07:08:34.769Z,25.10
2018-12-05T07:09:34.834Z,24.30
2018-12-05T07:10:34.850Z,25.00
2018-12-05T07:11:34.927Z,25.70
2018-12-05T07:12:34.976Z,24.80
2018-12-05T07:13:35.028Z,24.50
2018-12-05T07:14:35.073Z,24.50
2018-12-05T07:15:35.113Z,24.90
2018-12-05T07:16:35.160Z,25.20
2018-12-05T07:17:35.211Z,24.10
2018-12-05T07:18:35.270Z,24.30
2018-12-05T07:19:35.294Z,23.40
2018-12-05T07:20:35.328Z,25.50
2018-12-05T07:21:35.391Z,24.60
2018-12-05T07:22:35.434Z,24.10
2018-12-05T07:23:35.489Z,24.10
2018-12-05T07:24:35.554Z,24.30
2018-12-05T07:25:35.590Z,24.40
2018-12-05T07:26:35.640Z,24.40
2018-12-05T07:27:35.669Z,23.50
2018-12-05T07:28:35.726Z,23.30
2018-12-05T07:29:35.767Z,23.70
2018-12-05T07:30:35.808Z,24.50
2018-12-05T07:31:35.875Z,24.50
2018-12-05T07:32:35.916Z,23.80
2018-12-05T07:33:35.945Z,25.20
2018-12-05T07:34:35.981Z,23.70
2018-12-05T07:35:36.027Z,23.10
2018-12-05T07:36:36.080Z,24.50
2018-12-05T07:37:36.131Z,23.90
2018-12-05T07:38:36.198Z,23.90
2018-12-05T07:39:36.225Z,23.80
2018-12-05T07:40:36.284Z,24.40
2018-12-05T07:41:36.321Z,24.90
2018-12-05T07:42:36.370Z,24.50
2018-12-05T07:43:36.418Z,24.50
2018-12-05T07:44:36.449Z,25.60
2018-12-05T07:45:36.530Z,24.80
2018-12-05T07:46:36.567Z,24.10
2018-12-05T07:47:36.592Z,23.90
2018-12-05T07:48:36.633Z,24.20
2018-12-05T07:49:36.692Z,24.10
2018-12-05T07:50:36.800Z,23.80
2018-12-05T07:51:37.088Z,24.60
2018-12-05T07:52:36.874Z,24.20
2018-12-05T07:53:36.866Z,24.50
2018-12-05T07:54:36.946Z,26.30
2018-12-05T07:55:36.997Z,25.50
2018-12-05T07:56:37.073Z,25.40
2018-12-05T07:57:37.903Z,25.20
2018-12-05T07:58:37.134Z,25.70
2018-12-05T07:59:37.173Z,25.60
2018-12-05T08:00:37.203Z,23.30
2018-12-05T08:01:37.242Z,22.90
2018-12-05T08:02:37.338Z,22.90
2018-12-05T08:03:37.342Z,23.30
2018-12-05T08:04:37.405Z,21.80
2018-12-05T08:05:37.454Z,22.80
2018-12-05T08:06:37.470Z,22.40
2018-12-05T08:07:37.533Z,22.20
2018-12-05T08:08:37.584Z,22.10
2018-12-05T08:09:37.645Z,21.20
2018-12-05T08:10:37.681Z,22.20
2018-12-05T08:11:37.736Z,22.00
2018-12-05T08:12:37.772Z,22.40
2018-12-05T08:13:37.832Z,22.70
2018-12-05T08:14:37.906Z,23.10
2018-12-05T08:15:37.912Z,22.60
2018-12-05T08:16:38.000Z,22.10
2018-12-05T08:17:38.008Z,22.20
2018-12-05T08:18:38.067Z,22.90
2018-12-05T08:19:38.099Z,23.50
2018-12-05T08:20:38.140Z,23.70
2018-12-05T08:21:38.191Z,23.50
2018-12-05T08:22:38.241Z,23.30
2018-12-05T08:23:38.290Z,23.60
2018-12-05T08:24:38.314Z,23.80
2018-12-05T08:25:38.382Z,23.10
2018-12-05T08:26:38.414Z,23.00
2018-12-05T08:27:38.447Z,22.50
2018-12-05T08:28:38.525Z,22.70
2018-12-05T08:29:38.595Z,22.70
2018-12-05T08:30:38.645Z,22.60
2018-12-05T08:31:38.637Z,22.30
2018-12-05T08:32:38.698Z,22.10
2018-12-05T08:33:38.744Z,22.30
2018-12-05T08:34:38.889Z,22.10
2018-12-05T08:35:38.848Z,21.30
2018-12-05T08:36:38.931Z,20.60
2018-12-05T08:37:38.937Z,20.90
2018-12-05T08:38:38.965Z,20.50
2018-12-05T08:39:39.019Z,20.70
2018-12-05T08:40:39.070Z,20.60
2018-12-05T08:41:39.120Z,20.00
2018-12-05T08:42:39.146Z,20.20
2018-12-05T08:43:39.213Z,19.90
2018-12-05T08:44:39.315Z,19.50
2018-12-05T08:45:39.302Z,19.30
2018-12-05T08:46:39.361Z,19.20
2018-12-05T08:47:39.419Z,18.90
2018-12-05T08:48:39.440Z,18.10
2018-12-05T08:49:39.497Z,18.10
2018-12-05T08:50:39.535Z,17.60
2018-12-05T08:51:39.597Z,17.00
2018-12-05T08:52:39.703Z,16.60
2018-12-05T08:53:39.674Z,16.10
2018-12-05T08:54:39.720Z,16.50
2018-12-05T08:55:39.774Z,15.80
2018-12-05T08:56:39.827Z,15.50
2018-12-05T08:57:39.883Z,16.60
2018-12-05T08:58:39.926Z,15.30
2018-12-05T08:59:40.016Z,15.60
2018-12-05T09:00:40.012Z,15.50
2018-12-05T09:01:40.059Z,15.10
2018-12-05T09:02:40.123Z,15.10
2018-12-05T09:03:40.161Z,15.80
2018-12-05T09:04:40.229Z,15.10
2018-12-05T09:05:40.265Z,15.20
2018-12-05T09:06:40.314Z,14.50
2018-12-05T09:07:40.319Z,15.00
2018-12-05T09:08:40.395Z,14.70
2018-12-05T09:09:40.426Z,15.20
2018-12-05T09:10:40.474Z,14.70
2018-12-05T09:11:40.532Z,15.10
2018-12-05T09:12:40.574Z,14.70
2018-12-05T09:13:40.629Z,14.50
2018-12-05T09:14:40.747Z,14.30
2018-12-05T09:15:40.706Z,14.90
2018-12-05T09:16:40.777Z,14.40
2018-12-05T09:17:40.863Z,14.60
2018-12-05T09:18:40.889Z,14.60
2018-12-05T09:19:40.922Z,15.20
2018-12-05T09:20:40.975Z,14.10
2018-12-05T09:21:41.016Z,14.50
2018-12-05T09:22:41.694Z,14.00
2018-12-05T09:23:41.140Z,14.20
2018-12-05T09:24:41.189Z,14.30
2018-12-05T09:25:41.224Z,14.40
2018-12-05T09:26:41.246Z,13.60
2018-12-05T09:27:41.288Z,13.70
2018-12-05T09:28:41.396Z,14.00
2018-12-05T09:29:41.396Z,13.80
2018-12-05T09:30:41.480Z,12.80
2018-12-05T09:31:41.509Z,13.40
2018-12-05T09:32:41.557Z,13.30
2018-12-05T09:33:41.591Z,14.00
2018-12-05T09:34:41.653Z,13.30
2018-12-05T09:35:41.692Z,13.80
2018-12-05T09:36:41.744Z,13.50
2018-12-05T09:37:41.802Z,13.60
2018-12-05T09:38:41.852Z,13.80
2018-12-05T09:39:41.898Z,13.30
2018-12-05T09:40:41.938Z,13.30
2018-12-05T09:41:41.994Z,13.40
2018-12-05T09:42:42.043Z,13.90
2018-12-05T09:43:42.082Z,13.70
2018-12-05T09:44:42.163Z,13.20
2018-12-05T09:45:42.180Z,13.00
2018-12-05T09:46:42.241Z,13.50
2018-12-05T09:47:42.274Z,13.40
2018-12-05T09:48:42.322Z,13.10
2018-12-05T09:49:42.402Z,12.90
2018-12-05T09:50:42.421Z,12.50
2018-12-05T09:51:42.484Z,13.60
2018-12-05T09:52:42.545Z,14.20
2018-12-05T09:53:42.594Z,13.20
2018-12-05T09:54:42.641Z,13.70
2018-12-05T09:55:42.671Z,13.80
2018-12-05T09:56:42.728Z,13.40
2018-12-05T09:57:42.778Z,13.40
2018-12-05T09:58:42.875Z,13.60
2018-12-05T09:59:42.873Z,14.20
2018-12-05T10:00:42.953Z,13.90
2018-12-05T10:01:42.993Z,13.60
2018-12-05T10:02:43.055Z,13.60
2018-12-05T10:03:43.090Z,13.70
2018-12-05T10:04:43.122Z,13.70
2018-12-05T10:05:43.213Z,13.60
2018-12-05T10:06:43.279Z,13.00
2018-12-05T10:07:43.299Z,13.10
2018-12-05T10:08:43.337Z,13.30
2018-12-05T10:09:43.569Z,12.30
2018-12-05T10:10:43.433Z,12.90
2018-12-05T10:11:43.485Z,12.60
2018-12-05T10:12:43.524Z,12.70
2018-12-05T10:13:43.636Z,11.70
2018-12-05T10:14:43.624Z,12.00
2018-12-05T10:15:43.803Z,12.00
2018-12-05T10:16:43.754Z,11.30
2018-12-05T10:17:43.847Z,11.20
2018-12-05T10:18:43.845Z,11.20
2018-12-05T10:19:43.906Z,10.90
2018-12-05T10:20:43.948Z,11.00
2018-12-05T10:21:44.028Z,10.60
2018-12-05T10:22:44.069Z,10.60
2018-12-05T10:23:44.112Z,10.50
2018-12-05T10:24:44.165Z,10.60
2018-12-05T10:25:44.243Z,10.50
2018-12-05T10:26:44.294Z,10.20
2018-12-05T10:27:44.333Z,10.60
2018-12-05T10:28:44.401Z,10.30
2018-12-05T10:29:44.471Z,9.80
2018-12-05T10:30:44.516Z,9.90
2018-12-05T10:31:44.589Z,9.10
2018-12-05T10:32:44.635Z,9.40
2018-12-05T10:33:44.694Z,9.30
2018-12-05T10:34:44.752Z,9.10
2018-12-05T10:35:44.851Z,9.50
2018-12-05T10:36:44.858Z,9.70
2018-12-05T10:37:44.934Z,10.00
2018-12-05T10:38:44.975Z,9.40
2018-12-05T10:39:45.042Z,9.00
2018-12-05T10:40:45.093Z,9.20
2018-12-05T10:41:45.166Z,9.20
2018-12-05T10:42:45.205Z,9.50
2018-12-05T10:43:45.282Z,9.10
2018-12-05T10:44:45.359Z,8.90
2018-12-05T10:45:45.390Z,9.60
2018-12-05T10:46:45.446Z,9.60
2018-12-05T10:47:45.509Z,9.20
2018-12-05T10:48:45.545Z,9.50
2018-12-05T10:49:45.619Z,9.00
2018-12-05T10:50:45.664Z,9.00
2018-12-05T10:51:45.737Z,9.10
2018-12-05T10:52:45.803Z,9.30
2018-12-05T10:53:45.840Z,8.90
2018-12-05T10:54:45.935Z,9.80
2018-12-05T10:55:46.017Z,8.80
2018-12-05T10:56:46.084Z,9.30
2018-12-05T10:57:46.079Z,9.40
2018-12-05T10:58:46.211Z,9.40
2018-12-05T10:59:46.220Z,8.80
2018-12-05T11:00:46.283Z,8.40
2018-12-05T11:01:46.340Z,9.20
2018-12-05T11:02:46.399Z,8.20
2018-12-05T11:03:46.472Z,8.50
2018-12-05T11:04:46.518Z,8.10
2018-12-05T11:05:46.584Z,7.60
2018-12-05T11:06:46.682Z,7.60
2018-12-05T11:07:46.700Z,7.30
2018-12-05T11:08:46.802Z,7.40
2018-12-05T11:09:46.817Z,7.80
2018-12-05T11:10:46.870Z,6.20
2018-12-05T11:11:46.945Z,6.40
2018-12-05T11:12:47.006Z,6.00
2018-12-05T11:13:47.067Z,6.30
2018-12-05T11:14:47.112Z,6.30
2018-12-05T11:15:47.183Z,6.00
2018-12-05T11:16:47.289Z,4.90
2018-12-05T11:17:47.313Z,4.10
2018-12-05T11:18:47.367Z,3.80
2018-12-05T11:19:47.428Z,4.10
2018-12-05T11:20:47.494Z,4.60
2018-12-05T11:21:49.785Z,4.50
2018-12-05T11:22:47.609Z,4.90
2018-12-05T11:23:47.680Z,4.70
2018-12-05T11:24:47.770Z,4.80
2018-12-05T11:25:47.781Z,4.80
2018-12-05T11:26:47.863Z,5.10
2018-12-05T11:27:47.896Z,5.30
2018-12-05T11:28:48.021Z,4.40
2018-12-05T11:29:48.074Z,4.70
2018-12-05T11:30:48.135Z,4.40
2018-12-05T11:31:48.166Z,4.70
2018-12-05T11:32:48.232Z,3.90
2018-12-05T11:33:48.303Z,4.10
2018-12-05T11:34:48.362Z,3.90
2018-12-05T11:35:48.414Z,4.30
2018-12-05T11:36:48.475Z,10.80
2018-12-05T11:37:48.539Z,4.80
2018-12-05T11:38:48.623Z,4.30
2018-12-05T11:39:48.679Z,4.70
2018-12-05T11:40:48.713Z,3.90
2018-12-05T11:41:48.833Z,6.10
2018-12-05T11:42:49.112Z,4.80
2018-12-05T11:43:48.902Z,3.60
2018-12-05T11:44:48.964Z,3.20
2018-12-05T11:45:49.026Z,3.50
2018-12-05T11:46:49.110Z,3.70
2018-12-05T11:47:49.148Z,3.60
2018-12-05T11:48:49.217Z,3.60
2018-12-05T11:49:49.304Z,3.70
2018-12-05T11:50:49.399Z,3.60
2018-12-05T11:51:49.418Z,3.50
2018-12-05T11:52:49.466Z,4.10
2018-12-05T11:53:49.535Z,3.50
2018-12-05T11:54:49.635Z,4.00
2018-12-05T11:55:49.706Z,3.60
2018-12-05T11:56:49.749Z,3.40
2018-12-05T11:57:49.786Z,3.60
2018-12-05T11:58:49.853Z,3.60
2018-12-05T11:59:49.928Z,3.50
2018-12-05T12:00:49.994Z,3.20
2018-12-05T12:01:50.055Z,3.30
2018-12-05T12:02:50.099Z,3.40
2018-12-05T12:03:50.186Z,3.40
2018-12-05T12:04:50.277Z,3.60
2018-12-05T12:05:50.345Z,3.60
2018-12-05T12:06:50.368Z,3.60
2018-12-05T12:07:50.448Z,3.50
2018-12-05T12:08:50.472Z,3.60
2018-12-05T12:09:50.573Z,3.40
2018-12-05T12:10:50.612Z,3.40
2018-12-05T12:11:50.698Z,3.50
2018-12-05T12:12:50.772Z,3.20
2018-12-05T12:13:50.839Z,3.70
2018-12-05T12:14:50.867Z,7.40
2018-12-05T12:15:50.952Z,5.00
2018-12-05T12:16:50.992Z,4.50
2018-12-05T12:17:51.107Z,4.70
2018-12-05T12:18:51.118Z,3.60
2018-12-05T12:19:51.225Z,3.80
2018-12-05T12:20:51.250Z,3.60
2018-12-05T12:21:51.311Z,3.70
2018-12-05T12:22:51.391Z,5.30
2018-12-05T12:23:53.162Z,4.30
2018-12-05T12:24:51.502Z,4.20
2018-12-05T12:25:51.564Z,4.40
2018-12-05T12:26:51.631Z,3.70
2018-12-05T12:27:51.698Z,4.00
2018-12-05T12:28:51.757Z,3.80
2018-12-05T12:29:51.840Z,4.20
2018-12-05T12:30:51.897Z,4.10
2018-12-05T12:31:51.961Z,4.00
2018-12-05T12:32:52.032Z,3.80
2018-12-05T12:33:52.092Z,4.10
2018-12-05T12:34:52.169Z,3.60
2018-12-05T12:35:52.226Z,3.60
2018-12-05T12:36:52.297Z,3.80
2018-12-05T12:37:52.351Z,3.60
2018-12-05T12:38:52.422Z,3.90
2018-12-05T12:39:52.508Z,4.00
2018-12-05T12:40:52.531Z,4.00
2018-12-05T12:41:52.642Z,4.00
2018-12-05T12:42:52.991Z,3.90
2018-12-05T12:43:52.764Z,3.90
2018-12-05T12:44:52.799Z,3.70
2018-12-05T12:45:52.895Z,3.60
2018-12-05T12:46:52.936Z,3.40
2018-12-05T12:47:53.006Z,3.50
2018-12-05T12:48:53.074Z,3.60
2018-12-05T12:49:53.155Z,3.60
2018-12-05T12:50:53.197Z,3.40
2018-12-05T12:51:53.281Z,3.10
2018-12-05T12:52:53.347Z,3.20
2018-12-05T12:53:53.457Z,2.80
2018-12-05T12:54:53.481Z,2.60
2018-12-05T12:55:53.543Z,2.80
2018-12-05T12:56:53.582Z,3.00
2018-12-05T12:57:53.675Z,3.00